sensor_id;sensor_type;location;lat;lon;timestamp;temperature;humidity
41220;DHT22;26951;47.338;9.196;2022-09-27T00:01:12;9.50;71.90
41220;DHT22;26951;47.338;9.196;2022-09-27T00:03:56;9.40;71.90
41220;DHT22;26951;47.338;9.196;2022-09-27T00:06:41;9.40;71.30
41220;DHT22;26951;47.338;9.196;2022-09-27T00:09:26;9.40;71.80
41220;DHT22;26951;47.338;9.196;2022-09-27T00:12:10;9.40;72.30
41220;DHT22;26951;47.338;9.196;2022-09-27T00:14:54;9.40;72.20
41220;DHT22;26951;47.338;9.196;2022-09-27T00:17:39;9.40;72.60
41220;DHT22;26951;47.338;9.196;2022-09-27T00:20:23;9.40;73.30
41220;DHT22;26951;47.338;9.196;2022-09-27T00:23:08;9.40;72.90
41220;DHT22;26951;47.338;9.196;2022-09-27T00:25:57;9.50;73.90
41220;DHT22;26951;47.338;9.196;2022-09-27T00:28:42;9.40;73.60
41220;DHT22;26951;47.338;9.196;2022-09-27T00:31:28;9.40;74.40
41220;DHT22;26951;47.338;9.196;2022-09-27T00:34:21;9.40;74.30
41220;DHT22;26951;47.338;9.196;2022-09-27T00:37:07;9.40;74.70
41220;DHT22;26951;47.338;9.196;2022-09-27T00:39:51;9.40;74.70
41220;DHT22;26951;47.338;9.196;2022-09-27T00:42:36;9.40;74.80
41220;DHT22;26951;47.338;9.196;2022-09-27T00:45:20;9.40;75.20
41220;DHT22;26951;47.338;9.196;2022-09-27T00:48:05;9.40;74.20
41220;DHT22;26951;47.338;9.196;2022-09-27T00:50:53;9.40;73.30
41220;DHT22;26951;47.338;9.196;2022-09-27T00:53:44;9.40;72.60
41220;DHT22;26951;47.338;9.196;2022-09-27T00:56:32;9.40;72.70
41220;DHT22;26951;47.338;9.196;2022-09-27T00:59:31;9.40;73.10
41220;DHT22;26951;47.338;9.196;2022-09-27T01:02:16;9.40;73.60
41220;DHT22;26951;47.338;9.196;2022-09-27T01:05:03;9.40;74.30
41220;DHT22;26951;47.338;9.196;2022-09-27T01:07:49;9.40;74.40
41220;DHT22;26951;47.338;9.196;2022-09-27T01:10:39;9.30;74.20
41220;DHT22;26951;47.338;9.196;2022-09-27T01:13:31;9.30;74.60
41220;DHT22;26951;47.338;9.196;2022-09-27T01:16:41;9.30;74.70
41220;DHT22;26951;47.338;9.196;2022-09-27T01:32:18;9.20;75.80
41220;DHT22;26951;47.338;9.196;2022-09-27T01:35:30;9.10;74.90
41220;DHT22;26951;47.338;9.196;2022-09-27T01:41:19;9.00;76.70
41220;DHT22;26951;47.338;9.196;2022-09-27T01:44:26;9.00;76.60
41220;DHT22;26951;47.338;9.196;2022-09-27T01:47:22;9.00;77.30
41220;DHT22;26951;47.338;9.196;2022-09-27T01:50:18;9.10;76.40
41220;DHT22;26951;47.338;9.196;2022-09-27T01:53:29;9.10;77.60
41220;DHT22;26951;47.338;9.196;2022-09-27T01:56:40;9.00;77.70
41220;DHT22;26951;47.338;9.196;2022-09-27T01:59:44;9.00;79.00
41220;DHT22;26951;47.338;9.196;2022-09-27T02:02:32;9.00;78.60
41220;DHT22;26951;47.338;9.196;2022-09-27T02:05:19;9.00;78.90
41220;DHT22;26951;47.338;9.196;2022-09-27T02:08:11;9.00;78.60
41220;DHT22;26951;47.338;9.196;2022-09-27T02:10:59;9.00;78.90
41220;DHT22;26951;47.338;9.196;2022-09-27T02:16:51;9.00;79.20
41220;DHT22;26951;47.338;9.196;2022-09-27T02:20:10;8.90;78.90
41220;DHT22;26951;47.338;9.196;2022-09-27T02:23:29;9.00;79.10
41220;DHT22;26951;47.338;9.196;2022-09-27T02:26:23;8.90;79.10
41220;DHT22;26951;47.338;9.196;2022-09-27T02:29:15;8.90;79.00
41220;DHT22;26951;47.338;9.196;2022-09-27T02:32:01;8.90;79.80
41220;DHT22;26951;47.338;9.196;2022-09-27T02:34:46;8.90;79.60
41220;DHT22;26951;47.338;9.196;2022-09-27T02:37:32;8.90;79.70
41220;DHT22;26951;47.338;9.196;2022-09-27T02:40:17;8.90;79.20
41220;DHT22;26951;47.338;9.196;2022-09-27T02:43:03;8.90;79.70
41220;DHT22;26951;47.338;9.196;2022-09-27T02:55:30;8.90;77.70
41220;DHT22;26951;47.338;9.196;2022-09-27T02:58:26;9.00;77.60
41220;DHT22;26951;47.338;9.196;2022-09-27T03:07:15;9.00;78.40
41220;DHT22;26951;47.338;9.196;2022-09-27T03:10:00;9.00;78.40
41220;DHT22;26951;47.338;9.196;2022-09-27T03:12:44;9.00;78.50
41220;DHT22;26951;47.338;9.196;2022-09-27T03:15:29;9.00;78.70
41220;DHT22;26951;47.338;9.196;2022-09-27T03:18:13;9.00;79.10
41220;DHT22;26951;47.338;9.196;2022-09-27T03:20:58;8.90;78.20
41220;DHT22;26951;47.338;9.196;2022-09-27T03:23:43;9.00;75.30
41220;DHT22;26951;47.338;9.196;2022-09-27T03:26:27;8.90;74.00
41220;DHT22;26951;47.338;9.196;2022-09-27T03:29:11;8.70;70.30
41220;DHT22;26951;47.338;9.196;2022-09-27T03:31:55;8.70;71.10
41220;DHT22;26951;47.338;9.196;2022-09-27T03:34:39;8.60;69.70
41220;DHT22;26951;47.338;9.196;2022-09-27T03:37:24;8.40;69.60
41220;DHT22;26951;47.338;9.196;2022-09-27T03:40:11;8.50;71.50
41220;DHT22;26951;47.338;9.196;2022-09-27T03:42:55;8.40;71.20
41220;DHT22;26951;47.338;9.196;2022-09-27T03:45:42;8.40;72.50
41220;DHT22;26951;47.338;9.196;2022-09-27T03:48:27;8.30;72.90
41220;DHT22;26951;47.338;9.196;2022-09-27T03:51:13;8.30;73.70
41220;DHT22;26951;47.338;9.196;2022-09-27T03:53:58;8.30;73.70
41220;DHT22;26951;47.338;9.196;2022-09-27T03:56:42;8.30;74.20
41220;DHT22;26951;47.338;9.196;2022-09-27T03:59:26;8.30;74.10
41220;DHT22;26951;47.338;9.196;2022-09-27T04:02:10;8.30;74.60
41220;DHT22;26951;47.338;9.196;2022-09-27T04:04:54;8.30;74.70
41220;DHT22;26951;47.338;9.196;2022-09-27T04:07:38;8.20;74.80
41220;DHT22;26951;47.338;9.196;2022-09-27T04:10:22;8.30;75.00
41220;DHT22;26951;47.338;9.196;2022-09-27T04:13:07;8.30;74.30
41220;DHT22;26951;47.338;9.196;2022-09-27T04:15:51;8.30;74.60
41220;DHT22;26951;47.338;9.196;2022-09-27T04:18:36;8.30;74.60
41220;DHT22;26951;47.338;9.196;2022-09-27T04:21:20;8.30;75.50
41220;DHT22;26951;47.338;9.196;2022-09-27T04:24:05;8.30;75.50
41220;DHT22;26951;47.338;9.196;2022-09-27T04:26:50;8.40;75.80
41220;DHT22;26951;47.338;9.196;2022-09-27T04:29:35;8.40;77.20
41220;DHT22;26951;47.338;9.196;2022-09-27T04:32:19;8.30;77.80
41220;DHT22;26951;47.338;9.196;2022-09-27T04:35:04;8.40;79.00
41220;DHT22;26951;47.338;9.196;2022-09-27T04:38:07;8.30;78.80
41220;DHT22;26951;47.338;9.196;2022-09-27T04:40:51;8.30;78.20
41220;DHT22;26951;47.338;9.196;2022-09-27T04:43:35;8.30;78.00
41220;DHT22;26951;47.338;9.196;2022-09-27T04:46:20;8.30;78.70
41220;DHT22;26951;47.338;9.196;2022-09-27T04:49:04;8.20;78.40
41220;DHT22;26951;47.338;9.196;2022-09-27T04:51:48;8.20;78.70
41220;DHT22;26951;47.338;9.196;2022-09-27T04:54:32;8.20;79.30
41220;DHT22;26951;47.338;9.196;2022-09-27T04:57:17;8.10;79.80
41220;DHT22;26951;47.338;9.196;2022-09-27T05:00:02;8.10;78.30
41220;DHT22;26951;47.338;9.196;2022-09-27T05:02:47;8.10;78.90
41220;DHT22;26951;47.338;9.196;2022-09-27T05:05:31;8.10;78.80
41220;DHT22;26951;47.338;9.196;2022-09-27T05:08:15;8.10;78.60
41220;DHT22;26951;47.338;9.196;2022-09-27T05:11:00;8.10;79.20
41220;DHT22;26951;47.338;9.196;2022-09-27T05:13:44;8.00;79.70
41220;DHT22;26951;47.338;9.196;2022-09-27T05:16:28;8.10;79.60
41220;DHT22;26951;47.338;9.196;2022-09-27T05:19:12;8.00;79.20
41220;DHT22;26951;47.338;9.196;2022-09-27T05:21:56;8.00;79.00
41220;DHT22;26951;47.338;9.196;2022-09-27T05:24:41;8.00;80.10
41220;DHT22;26951;47.338;9.196;2022-09-27T05:27:25;7.90;80.40
41220;DHT22;26951;47.338;9.196;2022-09-27T05:30:09;8.00;80.30
41220;DHT22;26951;47.338;9.196;2022-09-27T05:32:54;8.00;79.70
41220;DHT22;26951;47.338;9.196;2022-09-27T05:35:38;8.00;79.50
41220;DHT22;26951;47.338;9.196;2022-09-27T05:38:25;8.00;79.20
41220;DHT22;26951;47.338;9.196;2022-09-27T05:41:10;8.00;78.80
41220;DHT22;26951;47.338;9.196;2022-09-27T05:43:54;8.10;79.60
41220;DHT22;26951;47.338;9.196;2022-09-27T05:46:39;8.00;80.30
41220;DHT22;26951;47.338;9.196;2022-09-27T05:49:23;8.00;79.90
41220;DHT22;26951;47.338;9.196;2022-09-27T05:52:07;8.00;79.40
41220;DHT22;26951;47.338;9.196;2022-09-27T05:54:51;8.00;80.20
41220;DHT22;26951;47.338;9.196;2022-09-27T05:57:35;8.00;79.40
41220;DHT22;26951;47.338;9.196;2022-09-27T06:00:19;8.00;79.40
41220;DHT22;26951;47.338;9.196;2022-09-27T06:03:05;8.00;79.30
41220;DHT22;26951;47.338;9.196;2022-09-27T06:05:49;8.00;79.40
41220;DHT22;26951;47.338;9.196;2022-09-27T06:08:34;8.00;79.60
41220;DHT22;26951;47.338;9.196;2022-09-27T06:11:18;8.00;78.90
41220;DHT22;26951;47.338;9.196;2022-09-27T06:14:03;8.00;77.20
41220;DHT22;26951;47.338;9.196;2022-09-27T06:16:47;8.00;76.80
41220;DHT22;26951;47.338;9.196;2022-09-27T06:19:31;7.90;74.60
41220;DHT22;26951;47.338;9.196;2022-09-27T06:22:15;7.90;73.80
41220;DHT22;26951;47.338;9.196;2022-09-27T06:25:00;7.90;74.30
41220;DHT22;26951;47.338;9.196;2022-09-27T06:27:44;7.90;74.50
41220;DHT22;26951;47.338;9.196;2022-09-27T06:30:28;7.90;74.90
41220;DHT22;26951;47.338;9.196;2022-09-27T06:33:15;7.90;74.10
41220;DHT22;26951;47.338;9.196;2022-09-27T06:36:06;7.90;75.60
41220;DHT22;26951;47.338;9.196;2022-09-27T06:38:51;7.90;75.40
41220;DHT22;26951;47.338;9.196;2022-09-27T06:41:35;7.80;74.70
41220;DHT22;26951;47.338;9.196;2022-09-27T06:44:21;7.80;75.40
41220;DHT22;26951;47.338;9.196;2022-09-27T06:47:06;7.80;76.60
41220;DHT22;26951;47.338;9.196;2022-09-27T06:49:50;7.80;76.30
41220;DHT22;26951;47.338;9.196;2022-09-27T06:52:35;7.70;76.70
41220;DHT22;26951;47.338;9.196;2022-09-27T06:55:20;7.80;77.50
41220;DHT22;26951;47.338;9.196;2022-09-27T06:58:05;7.80;77.30
41220;DHT22;26951;47.338;9.196;2022-09-27T07:01:08;7.80;77.80
41220;DHT22;26951;47.338;9.196;2022-09-27T07:03:53;7.80;74.30
41220;DHT22;26951;47.338;9.196;2022-09-27T07:06:38;7.80;74.10
41220;DHT22;26951;47.338;9.196;2022-09-27T07:09:22;7.80;75.40
41220;DHT22;26951;47.338;9.196;2022-09-27T07:12:06;7.80;76.30
41220;DHT22;26951;47.338;9.196;2022-09-27T07:14:50;7.80;76.40
41220;DHT22;26951;47.338;9.196;2022-09-27T07:17:34;7.80;74.70
41220;DHT22;26951;47.338;9.196;2022-09-27T07:20:20;7.80;67.90
41220;DHT22;26951;47.338;9.196;2022-09-27T07:23:05;7.50;63.90
41220;DHT22;26951;47.338;9.196;2022-09-27T07:25:50;7.20;64.30
41220;DHT22;26951;47.338;9.196;2022-09-27T07:28:34;6.90;66.30
41220;DHT22;26951;47.338;9.196;2022-09-27T07:31:19;6.70;68.50
41220;DHT22;26951;47.338;9.196;2022-09-27T07:34:03;6.50;70.00
41220;DHT22;26951;47.338;9.196;2022-09-27T07:36:47;6.40;71.30
41220;DHT22;26951;47.338;9.196;2022-09-27T07:39:31;6.30;72.20
41220;DHT22;26951;47.338;9.196;2022-09-27T07:42:15;6.30;73.80
41220;DHT22;26951;47.338;9.196;2022-09-27T07:45:00;6.30;74.20
41220;DHT22;26951;47.338;9.196;2022-09-27T07:47:44;6.30;74.90
41220;DHT22;26951;47.338;9.196;2022-09-27T07:50:28;6.30;73.60
41220;DHT22;26951;47.338;9.196;2022-09-27T07:53:13;6.30;74.20
41220;DHT22;26951;47.338;9.196;2022-09-27T07:55:58;6.30;75.20
41220;DHT22;26951;47.338;9.196;2022-09-27T07:58:42;6.30;76.10
41220;DHT22;26951;47.338;9.196;2022-09-27T08:01:26;6.40;76.20
41220;DHT22;26951;47.338;9.196;2022-09-27T08:04:10;6.40;76.80
41220;DHT22;26951;47.338;9.196;2022-09-27T08:06:54;6.50;75.60
41220;DHT22;26951;47.338;9.196;2022-09-27T08:09:39;6.60;75.70
41220;DHT22;26951;47.338;9.196;2022-09-27T08:12:23;6.60;76.30
41220;DHT22;26951;47.338;9.196;2022-09-27T08:15:07;6.70;76.60
41220;DHT22;26951;47.338;9.196;2022-09-27T08:17:52;6.80;75.80
41220;DHT22;26951;47.338;9.196;2022-09-27T08:20:36;6.80;75.90
41220;DHT22;26951;47.338;9.196;2022-09-27T08:23:20;6.90;75.90
41220;DHT22;26951;47.338;9.196;2022-09-27T08:26:05;7.00;73.60
41220;DHT22;26951;47.338;9.196;2022-09-27T08:28:49;7.00;72.20
41220;DHT22;26951;47.338;9.196;2022-09-27T08:31:33;7.00;71.10
41220;DHT22;26951;47.338;9.196;2022-09-27T08:34:17;7.00;68.80
41220;DHT22;26951;47.338;9.196;2022-09-27T08:37:02;7.00;70.40
41220;DHT22;26951;47.338;9.196;2022-09-27T08:39:46;7.00;72.20
41220;DHT22;26951;47.338;9.196;2022-09-27T08:45:40;7.00;75.70
41220;DHT22;26951;47.338;9.196;2022-09-27T08:48:26;7.10;75.10
41220;DHT22;26951;47.338;9.196;2022-09-27T08:51:13;7.20;74.90
41220;DHT22;26951;47.338;9.196;2022-09-27T08:54:02;7.20;74.20
41220;DHT22;26951;47.338;9.196;2022-09-27T08:56:52;7.20;74.10
41220;DHT22;26951;47.338;9.196;2022-09-27T08:59:44;7.30;74.70
41220;DHT22;26951;47.338;9.196;2022-09-27T09:02:30;7.30;75.70
41220;DHT22;26951;47.338;9.196;2022-09-27T09:05:28;7.40;76.40
41220;DHT22;26951;47.338;9.196;2022-09-27T09:08:25;7.50;76.10
41220;DHT22;26951;47.338;9.196;2022-09-27T09:21:33;8.00;76.90
41220;DHT22;26951;47.338;9.196;2022-09-27T09:27:58;8.20;73.90
41220;DHT22;26951;47.338;9.196;2022-09-27T09:36:54;8.50;74.30
41220;DHT22;26951;47.338;9.196;2022-09-27T09:39:58;8.70;74.50
41220;DHT22;26951;47.338;9.196;2022-09-27T09:45:57;8.90;72.50
41220;DHT22;26951;47.338;9.196;2022-09-27T09:48:48;8.90;71.00
41220;DHT22;26951;47.338;9.196;2022-09-27T09:51:40;8.90;70.10
41220;DHT22;26951;47.338;9.196;2022-09-27T09:54:34;9.00;70.30
41220;DHT22;26951;47.338;9.196;2022-09-27T09:57:39;9.00;71.40
41220;DHT22;26951;47.338;9.196;2022-09-27T10:00:25;9.20;73.10
41220;DHT22;26951;47.338;9.196;2022-09-27T10:03:09;9.30;73.70
41220;DHT22;26951;47.338;9.196;2022-09-27T10:05:53;9.60;68.30
41220;DHT22;26951;47.338;9.196;2022-09-27T10:08:38;9.60;67.40
41220;DHT22;26951;47.338;9.196;2022-09-27T10:11:31;9.60;67.70
41220;DHT22;26951;47.338;9.196;2022-09-27T10:14:20;9.70;68.80
41220;DHT22;26951;47.338;9.196;2022-09-27T10:17:10;9.80;69.10
41220;DHT22;26951;47.338;9.196;2022-09-27T10:19:57;9.90;68.20
41220;DHT22;26951;47.338;9.196;2022-09-27T10:22:47;10.00;65.20
41220;DHT22;26951;47.338;9.196;2022-09-27T10:25:49;9.90;64.60
41220;DHT22;26951;47.338;9.196;2022-09-27T10:28:37;10.00;66.40
41220;DHT22;26951;47.338;9.196;2022-09-27T10:31:22;10.10;65.20
41220;DHT22;26951;47.338;9.196;2022-09-27T10:34:23;10.20;65.70
41220;DHT22;26951;47.338;9.196;2022-09-27T10:39:55;10.30;64.80
41220;DHT22;26951;47.338;9.196;2022-09-27T10:42:41;10.40;65.60
41220;DHT22;26951;47.338;9.196;2022-09-27T10:45:30;10.60;62.30
41220;DHT22;26951;47.338;9.196;2022-09-27T10:48:20;10.70;64.80
41220;DHT22;26951;47.338;9.196;2022-09-27T10:51:30;10.90;63.40
41220;DHT22;26951;47.338;9.196;2022-09-27T10:54:32;11.10;64.10
41220;DHT22;26951;47.338;9.196;2022-09-27T10:57:25;11.10;63.10
41220;DHT22;26951;47.338;9.196;2022-09-27T11:00:25;11.20;61.40
41220;DHT22;26951;47.338;9.196;2022-09-27T11:03:14;11.10;58.90
41220;DHT22;26951;47.338;9.196;2022-09-27T11:05:59;11.00;57.60
41220;DHT22;26951;47.338;9.196;2022-09-27T11:08:43;10.90;60.10
41220;DHT22;26951;47.338;9.196;2022-09-27T11:11:30;10.80;61.30
41220;DHT22;26951;47.338;9.196;2022-09-27T11:14:19;10.70;57.80
41220;DHT22;26951;47.338;9.196;2022-09-27T11:17:53;10.50;57.50
41220;DHT22;26951;47.338;9.196;2022-09-27T11:20:24;10.20;56.30
41220;DHT22;26951;47.338;9.196;2022-09-27T11:30:04;9.70;63.00
41220;DHT22;26951;47.338;9.196;2022-09-27T11:33:16;9.70;63.80
41220;DHT22;26951;47.338;9.196;2022-09-27T11:39:37;9.60;65.00
41220;DHT22;26951;47.338;9.196;2022-09-27T11:48:38;9.30;63.90
41220;DHT22;26951;47.338;9.196;2022-09-27T11:54:56;8.80;62.40
41220;DHT22;26951;47.338;9.196;2022-09-27T11:58:22;8.70;64.40
41220;DHT22;26951;47.338;9.196;2022-09-27T12:07:40;8.50;67.00
41220;DHT22;26951;47.338;9.196;2022-09-27T12:10:27;8.40;68.50
41220;DHT22;26951;47.338;9.196;2022-09-27T12:13:12;8.40;68.50
41220;DHT22;26951;47.338;9.196;2022-09-27T12:15:57;8.50;71.30
41220;DHT22;26951;47.338;9.196;2022-09-27T12:18:43;8.50;71.00
41220;DHT22;26951;47.338;9.196;2022-09-27T12:21:31;8.60;72.20
41220;DHT22;26951;47.338;9.196;2022-09-27T12:24:20;8.60;71.70
41220;DHT22;26951;47.338;9.196;2022-09-27T12:27:39;8.70;71.50
41220;DHT22;26951;47.338;9.196;2022-09-27T12:30:21;8.80;71.50
41220;DHT22;26951;47.338;9.196;2022-09-27T12:33:14;8.80;71.80
41220;DHT22;26951;47.338;9.196;2022-09-27T12:36:05;8.90;72.50
41220;DHT22;26951;47.338;9.196;2022-09-27T12:39:08;9.00;70.90
41220;DHT22;26951;47.338;9.196;2022-09-27T12:42:00;9.10;71.80
41220;DHT22;26951;47.338;9.196;2022-09-27T12:44:50;9.20;70.60
41220;DHT22;26951;47.338;9.196;2022-09-27T12:51:17;9.30;67.70
41220;DHT22;26951;47.338;9.196;2022-09-27T12:54:22;9.20;68.20
41220;DHT22;26951;47.338;9.196;2022-09-27T13:00:18;9.20;68.30
41220;DHT22;26951;47.338;9.196;2022-09-27T13:03:28;9.20;65.40
41220;DHT22;26951;47.338;9.196;2022-09-27T13:06:31;9.10;66.20
41220;DHT22;26951;47.338;9.196;2022-09-27T13:09:44;9.10;66.10
41220;DHT22;26951;47.338;9.196;2022-09-27T13:12:34;9.20;68.70
41220;DHT22;26951;47.338;9.196;2022-09-27T13:15:31;9.30;69.00
41220;DHT22;26951;47.338;9.196;2022-09-27T13:42:04;9.60;67.00
41220;DHT22;26951;47.338;9.196;2022-09-27T13:45:09;9.70;66.70
41220;DHT22;26951;47.338;9.196;2022-09-27T13:48:01;9.80;63.80
41220;DHT22;26951;47.338;9.196;2022-09-27T13:54:39;9.90;61.90
41220;DHT22;26951;47.338;9.196;2022-09-27T13:57:40;9.90;62.50
41220;DHT22;26951;47.338;9.196;2022-09-27T14:00:37;10.00;62.50
41220;DHT22;26951;47.338;9.196;2022-09-27T14:03:52;10.00;60.50
41220;DHT22;26951;47.338;9.196;2022-09-27T14:06:43;9.90;60.70
41220;DHT22;26951;47.338;9.196;2022-09-27T14:09:31;10.00;58.70
41220;DHT22;26951;47.338;9.196;2022-09-27T14:12:22;9.90;59.50
41220;DHT22;26951;47.338;9.196;2022-09-27T14:15:20;9.90;61.90
41220;DHT22;26951;47.338;9.196;2022-09-27T14:18:10;9.70;62.60
41220;DHT22;26951;47.338;9.196;2022-09-27T14:21:20;9.60;63.90
41220;DHT22;26951;47.338;9.196;2022-09-27T14:24:29;9.50;64.40
41220;DHT22;26951;47.338;9.196;2022-09-27T14:27:22;9.40;63.60
41220;DHT22;26951;47.338;9.196;2022-09-27T14:30:15;9.30;66.30
41220;DHT22;26951;47.338;9.196;2022-09-27T14:33:00;9.30;65.80
41220;DHT22;26951;47.338;9.196;2022-09-27T14:35:48;9.30;67.60
41220;DHT22;26951;47.338;9.196;2022-09-27T14:38:51;9.30;66.70
41220;DHT22;26951;47.338;9.196;2022-09-27T14:41:36;9.30;65.60
41220;DHT22;26951;47.338;9.196;2022-09-27T14:44:21;9.30;65.30
41220;DHT22;26951;47.338;9.196;2022-09-27T14:49:58;9.20;65.90
41220;DHT22;26951;47.338;9.196;2022-09-27T14:52:46;9.20;66.70
41220;DHT22;26951;47.338;9.196;2022-09-27T14:55:32;9.20;64.10
41220;DHT22;26951;47.338;9.196;2022-09-27T14:58:17;9.20;63.40
41220;DHT22;26951;47.338;9.196;2022-09-27T15:01:02;9.20;65.50
41220;DHT22;26951;47.338;9.196;2022-09-27T15:03:47;9.20;64.10
41220;DHT22;26951;47.338;9.196;2022-09-27T15:06:34;9.20;64.10
41220;DHT22;26951;47.338;9.196;2022-09-27T15:09:21;9.20;66.00
41220;DHT22;26951;47.338;9.196;2022-09-27T15:12:05;9.10;63.80
41220;DHT22;26951;47.338;9.196;2022-09-27T15:14:53;9.10;64.70
41220;DHT22;26951;47.338;9.196;2022-09-27T15:17:42;9.10;66.30
41220;DHT22;26951;47.338;9.196;2022-09-27T15:23:26;9.10;66.00
41220;DHT22;26951;47.338;9.196;2022-09-27T15:28:57;9.20;68.20
41220;DHT22;26951;47.338;9.196;2022-09-27T15:31:41;9.20;66.70
41220;DHT22;26951;47.338;9.196;2022-09-27T15:34:25;9.20;67.50
41220;DHT22;26951;47.338;9.196;2022-09-27T15:37:32;9.20;67.40
41220;DHT22;26951;47.338;9.196;2022-09-27T15:43:02;9.20;66.10
41220;DHT22;26951;47.338;9.196;2022-09-27T15:45:51;9.20;65.20
41220;DHT22;26951;47.338;9.196;2022-09-27T15:48:35;9.20;66.80
41220;DHT22;26951;47.338;9.196;2022-09-27T15:51:40;9.10;65.70
41220;DHT22;26951;47.338;9.196;2022-09-27T15:54:29;9.10;66.30
41220;DHT22;26951;47.338;9.196;2022-09-27T15:57:15;9.10;67.00
41220;DHT22;26951;47.338;9.196;2022-09-27T15:59:59;9.00;67.00
41220;DHT22;26951;47.338;9.196;2022-09-27T16:02:43;9.00;65.40
41220;DHT22;26951;47.338;9.196;2022-09-27T16:05:27;9.00;66.30
41220;DHT22;26951;47.338;9.196;2022-09-27T16:08:13;9.10;65.40
41220;DHT22;26951;47.338;9.196;2022-09-27T16:10:58;9.00;66.00
41220;DHT22;26951;47.338;9.196;2022-09-27T16:13:42;9.00;67.00
41220;DHT22;26951;47.338;9.196;2022-09-27T16:16:27;9.00;66.50
41220;DHT22;26951;47.338;9.196;2022-09-27T16:19:12;9.00;66.90
41220;DHT22;26951;47.338;9.196;2022-09-27T16:21:56;9.00;65.30
41220;DHT22;26951;47.338;9.196;2022-09-27T16:24:40;9.00;64.50
41220;DHT22;26951;47.338;9.196;2022-09-27T16:27:25;9.00;64.80
41220;DHT22;26951;47.338;9.196;2022-09-27T16:30:10;8.90;65.20
41220;DHT22;26951;47.338;9.196;2022-09-27T16:32:55;8.90;63.30
41220;DHT22;26951;47.338;9.196;2022-09-27T16:35:39;8.90;64.90
41220;DHT22;26951;47.338;9.196;2022-09-27T16:38:27;8.90;65.60
41220;DHT22;26951;47.338;9.196;2022-09-27T16:41:13;8.90;66.40
41220;DHT22;26951;47.338;9.196;2022-09-27T16:43:57;8.90;66.70
41220;DHT22;26951;47.338;9.196;2022-09-27T16:46:42;8.90;66.60
41220;DHT22;26951;47.338;9.196;2022-09-27T16:49:28;8.90;66.80
41220;DHT22;26951;47.338;9.196;2022-09-27T16:52:32;8.90;67.50
41220;DHT22;26951;47.338;9.196;2022-09-27T16:55:17;8.80;68.10
41220;DHT22;26951;47.338;9.196;2022-09-27T16:58:03;8.80;68.70
41220;DHT22;26951;47.338;9.196;2022-09-27T17:00:50;8.70;68.70
41220;DHT22;26951;47.338;9.196;2022-09-27T17:03:34;8.70;69.10
41220;DHT22;26951;47.338;9.196;2022-09-27T17:06:21;8.70;68.70
41220;DHT22;26951;47.338;9.196;2022-09-27T17:09:06;8.60;69.70
41220;DHT22;26951;47.338;9.196;2022-09-27T17:11:50;8.50;69.80
41220;DHT22;26951;47.338;9.196;2022-09-27T17:14:34;8.50;69.60
41220;DHT22;26951;47.338;9.196;2022-09-27T17:17:18;8.50;69.50
41220;DHT22;26951;47.338;9.196;2022-09-27T17:20:02;8.50;68.80
41220;DHT22;26951;47.338;9.196;2022-09-27T17:26:28;8.40;69.40
41220;DHT22;26951;47.338;9.196;2022-09-27T17:29:14;8.40;70.30
41220;DHT22;26951;47.338;9.196;2022-09-27T17:31:58;8.40;70.30
41220;DHT22;26951;47.338;9.196;2022-09-27T17:34:44;8.40;72.20
41220;DHT22;26951;47.338;9.196;2022-09-27T17:37:28;8.40;72.60
41220;DHT22;26951;47.338;9.196;2022-09-27T17:40:13;8.30;69.50
41220;DHT22;26951;47.338;9.196;2022-09-27T17:42:59;8.30;70.80
41220;DHT22;26951;47.338;9.196;2022-09-27T17:45:44;8.30;70.40
41220;DHT22;26951;47.338;9.196;2022-09-27T17:48:28;8.20;70.10
41220;DHT22;26951;47.338;9.196;2022-09-27T17:51:34;8.20;69.70
41220;DHT22;26951;47.338;9.196;2022-09-27T17:54:20;8.20;70.40
41220;DHT22;26951;47.338;9.196;2022-09-27T17:57:05;8.20;70.70
41220;DHT22;26951;47.338;9.196;2022-09-27T17:59:49;8.20;70.60
41220;DHT22;26951;47.338;9.196;2022-09-27T18:02:34;8.10;71.00
41220;DHT22;26951;47.338;9.196;2022-09-27T18:05:18;8.10;71.70
41220;DHT22;26951;47.338;9.196;2022-09-27T18:08:04;8.10;71.10
41220;DHT22;26951;47.338;9.196;2022-09-27T18:10:48;8.10;71.60
41220;DHT22;26951;47.338;9.196;2022-09-27T18:13:33;8.10;71.70
41220;DHT22;26951;47.338;9.196;2022-09-27T18:16:23;8.10;72.20
41220;DHT22;26951;47.338;9.196;2022-09-27T18:19:15;8.10;72.00
41220;DHT22;26951;47.338;9.196;2022-09-27T18:22:00;8.10;71.90
41220;DHT22;26951;47.338;9.196;2022-09-27T18:24:44;8.10;71.90
41220;DHT22;26951;47.338;9.196;2022-09-27T18:27:28;8.10;72.10
41220;DHT22;26951;47.338;9.196;2022-09-27T18:30:12;8.10;71.90
41220;DHT22;26951;47.338;9.196;2022-09-27T18:32:56;8.20;71.10
41220;DHT22;26951;47.338;9.196;2022-09-27T18:35:41;8.20;71.70
41220;DHT22;26951;47.338;9.196;2022-09-27T18:38:25;8.20;71.10
41220;DHT22;26951;47.338;9.196;2022-09-27T18:41:11;8.30;69.70
41220;DHT22;26951;47.338;9.196;2022-09-27T18:43:59;8.20;69.80
41220;DHT22;26951;47.338;9.196;2022-09-27T18:46:44;8.20;71.40
41220;DHT22;26951;47.338;9.196;2022-09-27T18:49:28;8.10;71.10
41220;DHT22;26951;47.338;9.196;2022-09-27T18:52:12;8.10;71.80
41220;DHT22;26951;47.338;9.196;2022-09-27T18:54:56;8.10;72.40
41220;DHT22;26951;47.338;9.196;2022-09-27T18:57:42;8.10;72.90
41220;DHT22;26951;47.338;9.196;2022-09-27T19:00:26;8.10;73.00
41220;DHT22;26951;47.338;9.196;2022-09-27T19:03:13;8.00;73.20
41220;DHT22;26951;47.338;9.196;2022-09-27T19:06:00;8.00;73.60
41220;DHT22;26951;47.338;9.196;2022-09-27T19:08:45;8.00;72.60
41220;DHT22;26951;47.338;9.196;2022-09-27T19:11:30;7.90;72.80
41220;DHT22;26951;47.338;9.196;2022-09-27T19:14:16;7.90;73.00
41220;DHT22;26951;47.338;9.196;2022-09-27T19:17:00;7.90;73.50
41220;DHT22;26951;47.338;9.196;2022-09-27T19:19:44;7.90;73.60
41220;DHT22;26951;47.338;9.196;2022-09-27T19:22:29;7.90;74.30
41220;DHT22;26951;47.338;9.196;2022-09-27T19:25:13;7.80;74.20
41220;DHT22;26951;47.338;9.196;2022-09-27T19:27:57;7.80;73.70
41220;DHT22;26951;47.338;9.196;2022-09-27T19:30:42;7.80;73.70
41220;DHT22;26951;47.338;9.196;2022-09-27T19:33:26;7.80;74.00
41220;DHT22;26951;47.338;9.196;2022-09-27T19:36:13;7.90;74.70
41220;DHT22;26951;47.338;9.196;2022-09-27T19:38:57;7.90;74.40
41220;DHT22;26951;47.338;9.196;2022-09-27T19:41:42;7.90;74.30
41220;DHT22;26951;47.338;9.196;2022-09-27T19:44:28;7.80;75.40
41220;DHT22;26951;47.338;9.196;2022-09-27T19:47:12;7.80;75.30
41220;DHT22;26951;47.338;9.196;2022-09-27T19:49:57;7.80;75.50
41220;DHT22;26951;47.338;9.196;2022-09-27T19:52:41;7.90;75.00
41220;DHT22;26951;47.338;9.196;2022-09-27T19:55:26;7.80;75.90
41220;DHT22;26951;47.338;9.196;2022-09-27T19:58:10;7.80;75.90
41220;DHT22;26951;47.338;9.196;2022-09-27T20:03:46;7.80;77.40
41220;DHT22;26951;47.338;9.196;2022-09-27T20:06:31;7.80;77.70
41220;DHT22;26951;47.338;9.196;2022-09-27T20:09:15;7.80;78.00
41220;DHT22;26951;47.338;9.196;2022-09-27T20:12:00;7.80;77.10
41220;DHT22;26951;47.338;9.196;2022-09-27T20:14:44;7.80;78.40
41220;DHT22;26951;47.338;9.196;2022-09-27T20:17:32;7.70;77.50
41220;DHT22;26951;47.338;9.196;2022-09-27T20:20:16;7.70;78.90